Time;durP1;ratioP1;P1;durP2;ratioP2;P2;SDS_P1;SDS_P2;PMS_P1;PMS_P2;Temp;Humidity;BMP_temperature;BMP_pressure;BME280_temperature;BME280_humidity;BME280_pressure;Samples;Min_cycle;Max_cycle;Signal;HPM_P1;HPM_P2
2022/03/02 00:01:28;;;;;;;12.18;7.43;;;;;;;-1.28;83.10;99327.28;5065917;28;20053;-67
2022/03/02 00:03:54;;;;;;;25.80;10.32;;;;;;;-1.19;83.19;99333.69;5065999;28;20084;-67
2022/03/02 00:06:20;;;;;;;26.55;10.25;;;;;;;-1.19;83.27;99323.34;5065949;28;20031;-67
2022/03/02 00:08:45;;;;;;;28.00;10.07;;;;;;;-1.12;83.21;99325.31;5065862;28;20367;-67
2022/03/02 00:11:11;;;;;;;24.30;9.38;;;;;;;-1.13;82.75;99327.84;5066020;28;20248;-67
2022/03/02 00:13:37;;;;;;;31.02;10.23;;;;;;;-1.24;83.10;99324.88;5065788;28;20021;-67
2022/03/02 00:16:03;;;;;;;16.58;7.75;;;;;;;-1.35;83.54;99315.84;5065598;28;20021;-67
2022/03/02 00:18:29;;;;;;;23.20;8.52;;;;;;;-1.20;83.17;99315.53;5065739;28;20028;-67
2022/03/02 00:20:55;;;;;;;19.30;7.03;;;;;;;-1.20;82.88;99306.06;5065728;28;20084;-67
2022/03/02 00:23:20;;;;;;;19.55;9.07;;;;;;;-1.15;83.59;99320.03;5065672;28;20028;-67
2022/03/02 00:25:46;;;;;;;31.67;9.00;;;;;;;-1.05;83.68;99316.06;5065592;28;20070;-67
2022/03/02 00:28:12;;;;;;;26.70;8.90;;;;;;;-0.96;83.04;99322.47;5065470;28;20025;-67
2022/03/02 00:30:37;;;;;;;19.08;8.35;;;;;;;-0.95;83.45;99316.47;5065502;28;20028;-67
2022/03/02 00:33:03;;;;;;;19.63;10.18;;;;;;;-0.84;82.83;99320.34;5065479;28;20025;-67
2022/03/02 00:35:28;;;;;;;20.88;8.52;;;;;;;-0.99;82.85;99301.69;5065437;28;20043;-67
2022/03/02 00:37:54;;;;;;;24.15;9.60;;;;;;;-0.88;83.78;99313.28;5065234;28;20017;-67
2022/03/02 00:40:19;;;;;;;21.42;10.15;;;;;;;-0.71;83.11;99309.63;5065323;28;20025;-67
2022/03/02 00:42:45;;;;;;;24.60;11.02;;;;;;;-0.61;82.53;99303.94;5065258;28;20083;-67
2022/03/02 00:45:11;;;;;;;23.25;8.40;;;;;;;-0.67;83.33;99306.31;5065232;28;20025;-67
2022/03/02 00:47:37;;;;;;;21.50;8.73;;;;;;;-0.89;84.43;99302.94;5065087;28;20031;-67
2022/03/02 00:50:04;;;;;;;19.83;9.55;;;;;;;-0.88;84.11;99300.38;5065131;28;20025;-67
2022/03/02 00:52:29;;;;;;;13.95;8.07;;;;;;;-0.93;84.86;99296.75;5064876;28;20079;-67
2022/03/02 00:54:55;;;;;;;24.00;9.93;;;;;;;-0.83;83.76;99298.84;5065022;28;20371;-67
2022/03/02 00:57:21;;;;;;;16.20;7.10;;;;;;;-0.68;83.26;99299.38;5065026;28;20025;-67
2022/03/02 00:59:46;;;;;;;20.08;8.55;;;;;;;-0.69;83.35;99297.59;5064812;28;20060;-67
2022/03/02 01:02:11;;;;;;;16.27;8.10;;;;;;;-0.59;82.94;99298.81;5065184;28;20028;-67
2022/03/02 01:04:37;;;;;;;22.95;9.63;;;;;;;-0.61;83.09;99305.63;5064845;28;20031;-67
2022/03/02 01:07:03;;;;;;;23.88;9.65;;;;;;;-0.54;82.56;99308.50;5064624;28;20067;-67
2022/03/02 01:09:29;;;;;;;22.75;10.27;;;;;;;-0.62;82.97;99299.59;5064687;28;20028;-67
2022/03/02 01:11:54;;;;;;;19.98;10.02;;;;;;;-0.76;83.74;99298.22;5064710;28;20025;-67
2022/03/02 01:14:20;;;;;;;22.38;9.68;;;;;;;-0.80;83.60;99293.78;5064696;28;20091;-67
2022/03/02 01:16:46;;;;;;;25.73;9.80;;;;;;;-0.84;83.16;99286.75;5065538;28;20055;-67
2022/03/02 01:19:11;;;;;;;27.13;11.13;;;;;;;-0.77;83.12;99283.56;5064688;28;20317;-67
2022/03/02 01:21:37;;;;;;;20.55;8.73;;;;;;;-0.74;83.36;99291.41;5064790;28;20099;-67
2022/03/02 01:24:02;;;;;;;20.67;10.02;;;;;;;-0.84;83.68;99276.41;5064478;28;20032;-67
2022/03/02 01:26:31;;;;;;;20.50;9.70;;;;;;;-0.90;84.00;99265.88;5064436;28;20032;-67
2022/03/02 01:28:57;;;;;;;22.35;11.10;;;;;;;-1.02;83.86;99260.25;5064246;28;20029;-67
2022/03/02 01:31:23;;;;;;;22.60;8.77;;;;;;;-1.03;84.09;99263.69;5064363;28;20028;-67
2022/03/02 01:33:50;;;;;;;24.35;10.68;;;;;;;-1.12;84.55;99249.53;5064388;28;20028;-67
2022/03/02 01:36:16;;;;;;;24.83;9.23;;;;;;;-1.13;84.53;99256.44;5064224;28;20025;-67
2022/03/02 01:38:41;;;;;;;23.58;10.50;;;;;;;-1.03;84.40;99253.34;5064513;28;20024;-67
2022/03/02 01:41:07;;;;;;;22.80;10.00;;;;;;;-1.08;84.50;99247.13;5064046;28;20025;-67
2022/03/02 01:43:32;;;;;;;23.15;9.73;;;;;;;-1.16;84.91;99245.97;5064025;28;20044;-67
2022/03/02 01:45:58;;;;;;;27.67;8.70;;;;;;;-1.08;84.10;99235.94;5064112;28;20027;-67
2022/03/02 01:48:23;;;;;;;18.92;8.75;;;;;;;-1.28;84.00;99230.03;5063801;28;20017;-67
2022/03/02 01:50:49;;;;;;;20.25;8.00;;;;;;;-1.29;84.37;99237.72;5063528;28;20030;-67
2022/03/02 01:53:14;;;;;;;18.23;8.60;;;;;;;-1.43;84.85;99244.09;5064033;28;20036;-67
2022/03/02 01:55:40;;;;;;;19.15;8.90;;;;;;;-1.37;84.85;99240.03;5064294;28;20309;-67
2022/03/02 01:58:05;;;;;;;13.43;6.82;;;;;;;-1.43;84.49;99244.97;5063975;28;20074;-67
2022/03/02 02:00:31;;;;;;;26.55;10.95;;;;;;;-1.55;84.92;99239.34;5063807;28;20041;-67
2022/03/02 02:02:57;;;;;;;23.77;10.93;;;;;;;-1.53;85.12;99236.81;5063955;28;20127;-67
2022/03/02 02:05:23;;;;;;;20.90;8.63;;;;;;;-1.66;84.99;99239.75;5063902;28;20032;-67
2022/03/02 02:07:48;;;;;;;29.40;10.02;;;;;;;-1.73;85.55;99236.09;5063826;28;20044;-67
2022/03/02 02:10:15;;;;;;;19.15;8.40;;;;;;;-1.73;85.68;99233.50;5063848;28;20024;-67
2022/03/02 02:12:40;;;;;;;19.60;9.30;;;;;;;-1.78;85.78;99224.69;5064085;28;20055;-67
2022/03/02 02:15:09;;;;;;;15.23;7.57;;;;;;;-1.85;85.71;99229.56;5063666;28;20029;-67
2022/03/02 02:17:35;;;;;;;23.73;7.88;;;;;;;-1.77;86.18;99229.03;5063805;28;20020;-67
2022/03/02 02:20:01;;;;;;;21.83;8.43;;;;;;;-1.77;85.82;99230.75;5063750;28;20063;-67
2022/03/02 02:22:26;;;;;;;18.63;8.55;;;;;;;-1.66;85.66;99225.16;5063570;28;20212;-67
2022/03/02 02:24:51;;;;;;;16.23;8.73;;;;;;;-1.74;85.23;99215.38;5063633;28;20025;-67
2022/03/02 02:27:17;;;;;;;14.40;6.25;;;;;;;-1.69;85.42;99209.56;5063692;28;20020;-67
2022/03/02 02:29:44;;;;;;;22.15;7.43;;;;;;;-1.71;85.14;99213.78;5063496;28;20017;-67
2022/03/02 02:32:10;;;;;;;13.82;6.22;;;;;;;-1.85;85.56;99202.06;5063695;28;20013;-67
2022/03/02 02:34:36;;;;;;;17.75;7.57;;;;;;;-1.86;85.68;99200.31;5063633;28;20055;-67
2022/03/02 02:37:05;;;;;;;16.23;8.80;;;;;;;-1.86;85.83;99205.50;5063432;28;20108;-67
2022/03/02 02:39:32;;;;;;;12.52;6.60;;;;;;;-1.97;85.80;99195.59;5063541;28;20017;-67
2022/03/02 02:42:08;;;;;;;23.23;9.60;;;;;;;-2.05;85.85;99182.41;5063554;28;20025;-67
2022/03/02 02:44:35;;;;;;;28.17;8.63;;;;;;;-2.15;85.82;99180.28;5063529;28;20039;-67
2022/03/02 02:47:01;;;;;;;20.33;8.00;;;;;;;-2.19;86.75;99173.22;5063512;28;20086;-67
2022/03/02 02:49:27;;;;;;;16.65;6.50;;;;;;;-2.27;86.93;99179.81;5063440;28;20096;-67
2022/03/02 02:51:55;;;;;;;14.48;7.35;;;;;;;-2.17;87.13;99187.06;5063434;28;20047;-67
2022/03/02 02:54:21;;;;;;;18.52;8.48;;;;;;;-2.20;86.47;99179.22;5063378;28;20017;-67
2022/03/02 02:56:47;;;;;;;14.90;7.13;;;;;;;-2.17;86.32;99171.59;5063428;28;20020;-67
2022/03/02 02:59:12;;;;;;;21.58;7.25;;;;;;;-2.29;86.50;99155.66;5063174;28;20016;-67
2022/03/02 03:01:38;;;;;;;22.58;9.57;;;;;;;-2.46;86.41;99151.56;5063903;28;20345;-67
2022/03/02 03:04:06;;;;;;;15.07;7.82;;;;;;;-2.49;86.85;99146.28;5067201;28;20213;-67
2022/03/02 03:06:31;;;;;;;15.70;7.95;;;;;;;-2.49;87.42;99141.13;5067084;28;20404;-67
2022/03/02 03:08:57;;;;;;;16.50;7.63;;;;;;;-2.50;87.51;99134.22;5066817;28;20017;-67
2022/03/02 03:11:22;;;;;;;19.35;8.10;;;;;;;-2.42;87.24;99143.09;5067052;28;20376;-67
2022/03/02 03:13:48;;;;;;;29.23;7.65;;;;;;;-2.42;87.21;99145.69;5067192;28;20057;-67
2022/03/02 03:16:13;;;;;;;13.85;5.78;;;;;;;-2.42;87.08;99140.53;5066981;28;20044;-67
2022/03/02 03:18:39;;;;;;;25.10;7.43;;;;;;;-2.37;87.01;99141.59;5066873;28;20032;-67
2022/03/02 03:21:04;;;;;;;17.40;8.18;;;;;;;-2.37;86.75;99146.75;5066639;28;20055;-67
2022/03/02 03:23:30;;;;;;;24.10;9.60;;;;;;;-2.39;86.56;99140.66;5066817;28;20031;-67
2022/03/02 03:25:55;;;;;;;11.95;6.43;;;;;;;-2.38;86.55;99137.25;5066494;28;20097;-67
2022/03/02 03:28:21;;;;;;;9.77;5.22;;;;;;;-2.43;85.89;99143.94;5066634;28;20212;-67
2022/03/02 03:30:46;;;;;;;16.90;6.68;;;;;;;-2.81;86.07;99136.38;5066675;28;20025;-67
2022/03/02 03:33:12;;;;;;;27.38;7.78;;;;;;;-2.77;87.01;99151.13;5066636;28;20317;-67
2022/03/02 03:35:37;;;;;;;22.00;7.32;;;;;;;-2.67;87.40;99155.84;5066572;28;20033;-67
2022/03/02 03:38:03;;;;;;;15.77;6.57;;;;;;;-2.73;87.33;99150.44;5066546;28;20200;-67
2022/03/02 03:40:28;;;;;;;22.27;9.95;;;;;;;-2.71;87.41;99157.44;5066568;28;20057;-67
2022/03/02 03:42:55;;;;;;;16.40;7.60;;;;;;;-2.67;87.07;99156.72;5066137;28;20051;-67
2022/03/02 03:45:20;;;;;;;15.80;6.93;;;;;;;-2.84;86.68;99157.75;5066393;28;20070;-67
2022/03/02 03:47:46;;;;;;;17.10;7.03;;;;;;;-2.83;87.69;99156.03;5066499;28;20056;-67
2022/03/02 03:50:12;;;;;;;13.55;6.93;;;;;;;-2.78;87.91;99154.53;5066320;28;20021;-67
2022/03/02 03:52:38;;;;;;;20.90;7.47;;;;;;;-2.75;88.69;99155.53;5066526;28;20088;-67
2022/03/02 03:55:05;;;;;;;15.32;6.82;;;;;;;-2.75;89.02;99157.25;5066250;28;20115;-67
2022/03/02 03:57:30;;;;;;;13.25;6.20;;;;;;;-2.76;89.40;99160.63;5065969;28;20021;-67
2022/03/02 03:59:55;;;;;;;17.75;7.10;;;;;;;-2.73;89.35;99159.06;5065948;28;20107;-67
2022/03/02 04:02:21;;;;;;;15.32;6.75;;;;;;;-2.70;89.45;99151.44;5066145;28;20024;-67
2022/03/02 04:04:47;;;;;;;16.85;6.07;;;;;;;-2.61;88.71;99156.09;5066299;28;20049;-67
2022/03/02 04:07:13;;;;;;;16.20;8.05;;;;;;;-2.52;88.44;99161.63;5065997;28;20305;-67
2022/03/02 04:09:38;;;;;;;18.90;8.70;;;;;;;-2.59;88.69;99160.47;5065689;28;20190;-67
2022/03/02 04:12:04;;;;;;;14.73;6.82;;;;;;;-2.66;87.93;99162.78;5065593;28;20052;-67
2022/03/02 04:14:30;;;;;;;13.73;7.47;;;;;;;-2.71;88.14;99151.38;5065567;28;20032;-67
2022/03/02 04:16:56;;;;;;;13.75;6.57;;;;;;;-2.70;88.20;99146.28;5065808;28;20025;-67
2022/03/02 04:19:21;;;;;;;19.98;7.63;;;;;;;-2.71;88.27;99146.25;5065808;28;20024;-67
2022/03/02 04:21:47;;;;;;;14.38;7.90;;;;;;;-2.68;88.39;99143.78;5065733;28;20035;-67
2022/03/02 04:24:12;;;;;;;17.65;8.18;;;;;;;-2.69;88.22;99137.75;5065636;28;20202;-67
2022/03/02 04:26:37;;;;;;;14.13;7.25;;;;;;;-2.80;88.01;99133.88;5065613;28;20035;-67
2022/03/02 04:29:03;;;;;;;13.60;6.60;;;;;;;-2.83;87.96;99131.16;5065313;28;20036;-67
2022/03/02 04:31:28;;;;;;;15.40;7.20;;;;;;;-2.85;88.14;99126.78;5065546;28;20029;-67
2022/03/02 04:33:54;;;;;;;13.52;6.55;;;;;;;-2.79;88.17;99129.56;5065486;28;20025;-67
2022/03/02 04:36:19;;;;;;;14.68;5.82;;;;;;;-2.88;88.60;99124.09;5065448;28;20316;-67
2022/03/02 04:38:45;;;;;;;8.18;5.40;;;;;;;-2.86;88.03;99125.00;5065397;28;20020;-67
2022/03/02 04:41:11;;;;;;;16.27;6.68;;;;;;;-2.90;88.33;99123.13;5065364;28;20066;-67
2022/03/02 04:43:36;;;;;;;12.82;5.82;;;;;;;-2.99;88.18;99120.19;5065580;28;20029;-67
2022/03/02 04:46:02;;;;;;;25.75;7.47;;;;;;;-3.09;88.43;99118.03;5065036;28;20382;-67
2022/03/02 04:48:27;;;;;;;14.45;6.38;;;;;;;-3.18;88.90;99113.41;5065371;28;20052;-67
2022/03/02 04:50:53;;;;;;;15.18;6.93;;;;;;;-3.08;90.13;99109.50;5065161;28;20037;-67
2022/03/02 04:53:18;;;;;;;15.25;7.32;;;;;;;-3.08;89.59;99110.38;5064982;28;20056;-67
2022/03/02 04:55:44;;;;;;;10.18;5.53;;;;;;;-3.05;89.96;99112.19;5064991;28;20020;-67
2022/03/02 04:58:11;;;;;;;16.50;7.15;;;;;;;-2.99;89.99;99109.88;5065005;28;20032;-67
2022/03/02 05:00:37;;;;;;;14.20;6.93;;;;;;;-2.96;90.29;99104.84;5064470;28;20264;-67
2022/03/02 05:03:05;;;;;;;13.68;6.13;;;;;;;-2.85;89.40;99108.75;5063631;28;20044;-67
2022/03/02 05:05:32;;;;;;;10.50;5.63;;;;;;;-2.96;89.34;99102.28;5063927;28;20046;-67
2022/03/02 05:07:58;;;;;;;11.95;6.60;;;;;;;-2.96;89.06;99104.84;5063817;28;20021;-67
2022/03/02 05:10:25;;;;;;;12.55;5.65;;;;;;;-2.92;89.43;99106.72;5063835;28;20082;-67
2022/03/02 05:12:51;;;;;;;10.88;5.80;;;;;;;-2.99;89.11;99099.56;5063791;28;20070;-67
2022/03/02 05:15:19;;;;;;;10.35;5.47;;;;;;;-3.02;89.34;99105.50;5063615;28;20032;-67
2022/03/02 05:17:46;;;;;;;14.32;6.88;;;;;;;-2.97;89.64;99103.97;5043302;28;20022;-67
2022/03/02 05:20:14;;;;;;;16.85;7.30;;;;;;;-2.90;89.56;99106.00;5043707;28;20025;-67
2022/03/02 05:22:39;;;;;;;8.73;6.53;;;;;;;-2.86;89.52;99101.81;5043672;28;20088;-67
2022/03/02 05:25:07;;;;;;;14.52;7.07;;;;;;;-2.89;89.24;99093.97;5043014;28;20059;-67
2022/03/02 05:27:32;;;;;;;14.20;7.03;;;;;;;-2.90;89.34;99089.66;5044856;28;20029;-67
2022/03/02 05:29:58;;;;;;;12.82;6.00;;;;;;;-2.77;89.47;99091.91;5063043;28;20088;-67
2022/03/02 05:32:24;;;;;;;14.77;6.47;;;;;;;-2.67;88.96;99094.00;5063677;28;20347;-67
2022/03/02 05:34:49;;;;;;;11.48;6.82;;;;;;;-2.69;88.80;99103.41;5064216;28;20272;-67
2022/03/02 05:37:15;;;;;;;21.75;7.05;;;;;;;-2.76;88.92;99103.94;5063526;28;20021;-66
2022/03/02 05:39:40;;;;;;;17.20;8.15;;;;;;;-2.77;89.06;99097.03;5063934;28;20213;-67
2022/03/02 05:42:06;;;;;;;16.42;7.32;;;;;;;-2.79;89.42;99098.66;5064260;28;20028;-67
2022/03/02 05:44:32;;;;;;;17.05;7.65;;;;;;;-2.77;89.08;99094.47;5064221;28;20063;-67
2022/03/02 05:46:58;;;;;;;18.73;5.88;;;;;;;-2.73;89.23;99098.91;5064179;28;20379;-67
2022/03/02 05:49:23;;;;;;;13.57;7.13;;;;;;;-2.70;89.06;99093.88;5064313;28;20061;-67
2022/03/02 05:51:49;;;;;;;16.33;7.43;;;;;;;-2.71;88.73;99097.28;5064103;28;20106;-67
2022/03/02 05:54:14;;;;;;;14.40;6.88;;;;;;;-2.64;88.66;99099.28;5064103;28;20209;-67
2022/03/02 05:56:40;;;;;;;17.48;8.43;;;;;;;-2.63;88.88;99095.88;5064023;28;20362;-67
2022/03/02 05:59:11;;;;;;;11.40;7.07;;;;;;;-2.62;88.99;99102.81;5064039;28;20095;-67
2022/03/02 06:01:36;;;;;;;14.80;7.25;;;;;;;-2.68;88.93;99105.16;5063866;28;20047;-67
2022/03/02 06:04:04;;;;;;;22.42;6.43;;;;;;;-2.61;88.85;99109.72;5063906;28;20032;-67
2022/03/02 06:06:30;;;;;;;13.88;6.72;;;;;;;-2.54;88.78;99111.69;5063920;28;20317;-67
2022/03/02 06:08:56;;;;;;;15.10;8.18;;;;;;;-2.56;89.04;99113.34;5063891;28;20222;-67
2022/03/02 06:11:22;;;;;;;19.65;7.15;;;;;;;-2.61;89.17;99117.44;5064109;28;20067;-67
2022/03/02 06:13:48;;;;;;;12.23;6.82;;;;;;;-2.48;88.85;99118.00;5063910;28;20031;-67
2022/03/02 06:16:14;;;;;;;15.50;7.10;;;;;;;-2.45;88.85;99117.22;5063793;28;20028;-67
2022/03/02 06:18:40;;;;;;;16.35;6.97;;;;;;;-2.46;89.08;99111.16;5063737;28;20080;-67
2022/03/02 06:21:06;;;;;;;16.13;8.60;;;;;;;-2.47;89.65;99108.53;5064014;28;20028;-67
2022/03/02 06:23:32;;;;;;;14.93;7.80;;;;;;;-2.41;89.83;99113.94;5063720;28;20028;-67
2022/03/02 06:25:58;;;;;;;27.27;11.43;;;;;;;-2.35;89.48;99120.22;5063634;28;20328;-67
2022/03/02 06:28:25;;;;;;;24.35;10.75;;;;;;;-2.18;89.38;99123.44;5063882;28;20033;-67
2022/03/02 06:30:51;;;;;;;27.38;11.05;;;;;;;-2.14;89.48;99115.00;5063633;28;20084;-67
2022/03/02 06:33:18;;;;;;;33.42;11.43;;;;;;;-2.06;89.01;99123.88;5063849;28;20029;-67
2022/03/02 06:35:53;;;;;;;26.08;10.68;;;;;;;-1.95;88.73;99127.75;5064546;28;20028;-67
2022/03/02 06:38:20;;;;;;;33.25;11.52;;;;;;;-1.78;88.35;99126.66;5067435;28;20316;-67
2022/03/02 06:40:59;;;;;;;28.80;11.48;;;;;;;-1.66;87.79;99119.38;5067541;28;20400;-67
2022/03/02 06:43:26;;;;;;;24.75;10.43;;;;;;;-1.65;87.75;99121.13;5067580;28;20068;-67
2022/03/02 06:45:59;;;;;;;21.27;9.20;;;;;;;-1.53;87.24;99129.31;5067448;28;20033;-67
2022/03/02 06:48:30;;;;;;;34.58;11.07;;;;;;;-1.51;86.69;99126.78;5067357;28;20029;-67
2022/03/02 06:50:59;;;;;;;21.38;10.45;;;;;;;-1.49;87.24;99115.66;5067524;28;20040;-67
2022/03/02 06:53:37;;;;;;;17.90;8.82;;;;;;;-1.29;86.95;99114.69;5067258;28;20024;-67
2022/03/02 06:56:05;;;;;;;26.92;9.90;;;;;;;-1.12;86.37;99118.69;5067370;28;20308;-67
2022/03/02 06:58:41;;;;;;;24.85;11.73;;;;;;;-0.97;85.55;99114.06;5067335;28;20021;-67
2022/03/02 07:01:10;;;;;;;19.73;9.50;;;;;;;-0.68;85.38;99121.03;5067104;28;20199;-67
2022/03/02 07:03:42;;;;;;;27.35;10.57;;;;;;;-0.52;84.37;99125.88;5067206;28;20255;-67
2022/03/02 07:06:07;;;;;;;27.73;10.82;;;;;;;-0.34;83.80;99131.59;5067183;28;20024;-67
2022/03/02 07:08:34;;;;;;;26.58;11.57;;;;;;;-0.25;83.55;99126.72;5066978;28;20363;-67
2022/03/02 07:11:00;;;;;;;26.35;11.55;;;;;;;-0.22;84.16;99131.97;5066957;28;20031;-67
2022/03/02 07:13:27;;;;;;;29.67;11.45;;;;;;;-0.17;85.00;99135.59;5067017;28;20024;-67
2022/03/02 07:15:53;;;;;;;26.58;10.35;;;;;;;-0.18;84.21;99143.31;5066884;28;20032;-67
2022/03/02 07:18:19;;;;;;;27.48;12.85;;;;;;;-0.28;84.56;99144.72;5066900;28;20093;-67
2022/03/02 07:20:46;;;;;;;32.70;12.07;;;;;;;-0.07;84.15;99144.50;5066970;28;20025;-67
2022/03/02 07:23:15;;;;;;;28.67;13.52;;;;;;;-0.03;83.82;99149.81;5066897;28;20092;-67
2022/03/02 07:25:42;;;;;;;23.50;11.55;;;;;;;-0.05;84.07;99140.25;5066729;28;20025;-67
2022/03/02 07:28:11;;;;;;;30.90;12.13;;;;;;;-0.13;84.46;99137.44;5066654;28;20021;-67
2022/03/02 07:30:36;;;;;;;36.67;15.60;;;;;;;0.01;84.80;99146.47;5066685;28;20025;-67
2022/03/02 07:33:03;;;;;;;22.70;11.15;;;;;;;0.07;85.77;99139.75;5066650;28;20025;-67
2022/03/02 07:35:32;;;;;;;27.63;12.00;;;;;;;0.13;86.48;99127.88;5066666;28;20331;-67
2022/03/02 07:37:58;;;;;;;31.17;13.60;;;;;;;0.16;85.48;99125.38;5066561;28;20043;-67
2022/03/02 07:40:24;;;;;;;30.45;12.00;;;;;;;0.42;84.53;99128.69;5066518;28;20216;-68
2022/03/02 07:42:50;;;;;;;36.13;13.57;;;;;;;0.48;83.59;99119.41;5066517;28;20088;-68
2022/03/02 07:45:16;;;;;;;26.38;11.93;;;;;;;0.61;83.67;99115.41;5066620;28;20017;-68
2022/03/02 07:47:42;;;;;;;29.90;12.13;;;;;;;0.72;83.49;99111.38;5065391;28;20024;-68
2022/03/02 07:50:08;;;;;;;33.08;12.98;;;;;;;0.93;82.69;99122.31;5066372;28;20028;-68
2022/03/02 07:52:36;;;;;;;30.08;12.65;;;;;;;0.91;84.26;99116.22;5066546;28;20364;-68
2022/03/02 07:55:09;;;;;;;30.52;11.07;;;;;;;1.08;84.24;99121.00;5066266;28;20028;-68
2022/03/02 07:57:35;;;;;;;24.95;10.02;;;;;;;1.28;83.18;99126.69;5066178;28;20021;-68
2022/03/02 08:00:03;;;;;;;24.60;11.02;;;;;;;1.36;82.31;99132.94;5066005;28;20066;-67
2022/03/02 08:02:30;;;;;;;23.50;10.82;;;;;;;1.41;82.52;99131.31;5066185;28;20028;-67
2022/03/02 08:04:56;;;;;;;51.17;13.93;;;;;;;1.40;82.26;99125.28;5066058;28;20032;-67
2022/03/02 08:07:22;;;;;;;23.83;10.98;;;;;;;1.45;82.60;99128.84;5066020;28;20032;-67
2022/03/02 08:09:50;;;;;;;26.17;11.20;;;;;;;1.43;82.56;99124.47;5065895;28;20025;-67
2022/03/02 08:12:20;;;;;;;30.20;11.75;;;;;;;1.44;82.89;99115.84;5065913;28;20025;-67
2022/03/02 08:14:47;;;;;;;28.38;13.52;;;;;;;1.37;81.85;99114.84;5065877;28;20033;-67
2022/03/02 08:17:12;;;;;;;33.20;13.82;;;;;;;1.36;81.64;99112.22;5065939;28;20044;-67
2022/03/02 08:19:38;;;;;;;32.42;11.68;;;;;;;1.45;81.47;99113.28;5065794;28;20029;-67
2022/03/02 08:22:09;;;;;;;23.77;10.50;;;;;;;1.45;82.11;99112.41;5065770;28;20225;-67
2022/03/02 08:24:41;;;;;;;28.20;13.02;;;;;;;1.69;82.14;99120.78;5065926;28;20092;-67
2022/03/02 08:27:09;;;;;;;;;;;;;;;1.83;82.09;99121.94;5066384;28;20044;-67
2022/03/02 08:29:36;;;;;;;30.00;11.65;;;;;;;1.87;82.56;99118.59;5065529;28;19946;-67
2022/03/02 08:32:03;;;;;;;29.40;11.18;;;;;;;1.97;82.38;99116.22;5065549;28;20084;-67
2022/03/02 08:34:29;;;;;;;21.52;9.05;;;;;;;2.14;81.93;99116.59;5065448;28;20032;-67
2022/03/02 08:36:55;;;;;;;25.55;11.60;;;;;;;2.20;81.11;99093.34;5065504;28;20270;-67
2022/03/02 08:39:21;;;;;;;18.17;8.95;;;;;;;2.27;81.13;99104.75;5065650;28;20021;-67
2022/03/02 08:41:48;;;;;;;22.45;10.20;;;;;;;2.37;80.57;99094.56;5065420;28;20250;-67
2022/03/02 08:44:14;;;;;;;34.08;12.30;;;;;;;2.37;80.34;99110.16;5065521;28;20021;-67
2022/03/02 08:46:41;;;;;;;18.92;9.77;;;;;;;2.53;79.73;99099.22;5065506;28;20339;-67
2022/03/02 08:49:06;;;;;;;24.05;10.48;;;;;;;2.64;79.57;99097.72;5065170;28;20028;-67
2022/03/02 08:51:35;;;;;;;29.13;11.57;;;;;;;2.65;79.62;99083.88;5065153;28;20048;-67
2022/03/02 08:54:03;;;;;;;28.65;12.23;;;;;;;2.70;79.50;99082.25;5065349;28;20025;-67
2022/03/02 08:56:32;;;;;;;28.65;11.45;;;;;;;2.82;79.57;99082.47;5065046;28;20051;-67
2022/03/02 08:59:00;;;;;;;30.92;12.82;;;;;;;2.67;80.16;99071.78;5064935;28;20344;-67
2022/03/02 09:01:29;;;;;;;30.52;12.93;;;;;;;2.81;79.91;99070.28;5064826;28;20045;-67
2022/03/02 09:03:58;;;;;;;26.10;11.45;;;;;;;2.90;78.74;99065.25;5063855;28;20078;-67
2022/03/02 09:06:25;;;;;;;28.45;12.90;;;;;;;2.96;79.10;99070.56;5064869;28;20029;-67
2022/03/02 09:08:51;;;;;;;34.20;13.68;;;;;;;3.09;79.39;99071.66;5064801;28;20025;-67
2022/03/02 09:11:16;;;;;;;29.48;12.77;;;;;;;3.23;78.91;99073.63;5064899;28;20088;-67
2022/03/02 09:13:42;;;;;;;27.85;12.32;;;;;;;3.34;77.81;99069.47;5064699;28;20051;-67
2022/03/02 09:16:10;;;;;;;36.50;13.48;;;;;;;3.46;77.84;99069.69;5064686;28;20325;-67
2022/03/02 09:18:35;;;;;;;36.60;12.60;;;;;;;3.52;77.01;99054.16;5064895;28;20017;-67
2022/03/02 09:21:04;;;;;;;27.75;13.00;;;;;;;3.54;72.70;99057.66;5064641;28;20091;-67
2022/03/02 09:23:35;;;;;;;41.50;12.13;;;;;;;3.54;69.88;99052.44;5064769;28;20213;-67
2022/03/02 09:26:06;;;;;;;25.83;10.40;;;;;;;3.68;70.55;99050.94;5064517;28;20247;-68
2022/03/02 09:28:37;;;;;;;29.83;11.30;;;;;;;3.69;68.90;99049.19;5064722;28;20029;-68
2022/03/02 09:31:06;;;;;;;31.08;12.10;;;;;;;3.71;68.92;99056.19;5064438;28;20028;-68
2022/03/02 09:33:32;;;;;;;30.67;14.00;;;;;;;3.75;69.89;99054.47;5064392;28;20025;-68
2022/03/02 09:36:05;;;;;;;32.03;12.35;;;;;;;3.79;69.43;99048.44;5064341;28;20059;-68
2022/03/02 09:38:32;;;;;;;30.08;12.32;;;;;;;3.82;69.24;99040.69;5064322;28;20083;-68
2022/03/02 09:41:03;;;;;;;24.90;11.95;;;;;;;4.03;69.68;99034.06;5064274;28;20024;-68
2022/03/02 09:43:31;;;;;;;30.25;13.60;;;;;;;4.12;69.83;99033.28;5064268;28;20021;-68
2022/03/02 09:46:01;;;;;;;41.00;13.18;;;;;;;4.06;69.74;99031.50;5064166;28;20025;-68
2022/03/02 09:48:32;;;;;;;31.58;14.02;;;;;;;4.20;70.71;99032.53;5064367;28;20028;-68
2022/03/02 09:51:01;;;;;;;28.87;12.47;;;;;;;4.35;68.71;99030.09;5064154;28;20029;-68
2022/03/02 09:53:28;;;;;;;23.85;10.70;;;;;;;4.36;67.93;99023.13;5064065;28;20035;-68
2022/03/02 09:56:01;;;;;;;30.23;11.48;;;;;;;4.68;68.39;99031.31;5064061;28;20217;-68
2022/03/02 09:58:27;;;;;;;;;;;;;;;4.86;67.67;99026.25;5064466;28;20244;-68
2022/03/02 10:00:55;;;;;;;31.05;10.30;;;;;;;4.97;66.48;99030.72;5063909;28;19912;-68
2022/03/02 10:03:26;;;;;;;24.02;10.20;;;;;;;5.03;65.22;99035.97;5064002;28;20025;-68
2022/03/02 10:05:53;;;;;;;23.73;10.32;;;;;;;4.96;64.48;99028.09;5063976;28;20056;-68
2022/03/02 10:08:21;;;;;;;18.45;8.52;;;;;;;5.12;64.65;99032.59;5063796;28;20029;-68
2022/03/02 10:10:48;;;;;;;25.40;10.57;;;;;;;5.19;63.79;99032.63;5063377;28;20025;-68
2022/03/02 10:13:16;;;;;;;25.30;10.60;;;;;;;5.35;62.98;99037.13;5063838;28;20029;-68
2022/03/02 10:15:43;;;;;;;29.05;10.15;;;;;;;5.52;61.10;99035.53;5063790;28;20320;-68
2022/03/02 10:18:12;;;;;;;27.00;10.88;;;;;;;5.58;61.05;99032.06;5064061;28;20251;-68
2022/03/02 10:20:44;;;;;;;21.27;10.35;;;;;;;5.91;60.18;99032.28;5063764;28;20259;-68
2022/03/02 10:23:42;;;;;;;24.20;10.27;;;;;;;5.92;59.61;99028.84;5063748;28;20020;-68
2022/03/02 10:26:24;;;;;;;25.60;10.75;;;;;;;6.06;60.27;99037.59;5063727;28;20063;-68
2022/03/02 10:29:03;;;;;;;24.85;10.90;;;;;;;6.39;60.33;99035.13;5063716;28;20017;-68
2022/03/02 10:31:34;;;;;;;18.30;9.10;;;;;;;6.43;60.15;99029.06;5063961;28;20248;-68
2022/03/02 10:34:26;;;;;;;24.52;10.57;;;;;;;6.50;60.74;99030.81;5063687;28;20025;-68
2022/03/02 10:37:24;;;;;;;22.55;10.02;;;;;;;6.71;59.86;99025.66;5063628;28;20025;-67
2022/03/02 10:40:12;;;;;;;22.27;10.18;;;;;;;6.78;59.28;99016.94;5063287;28;20232;-68
2022/03/02 10:42:57;;;;;;;17.60;10.45;;;;;;;6.71;59.46;99016.91;5059930;28;20325;-68
2022/03/02 10:45:27;;;;;;;23.25;10.57;;;;;;;6.89;59.74;99017.81;5063432;28;20025;-68
2022/03/02 10:48:08;;;;;;;26.02;12.52;;;;;;;7.11;59.35;99016.94;5063450;28;20021;-68
2022/03/02 10:50:35;;;;;;;20.15;9.88;;;;;;;7.05;57.37;99014.34;5063473;28;20020;-68
2022/03/02 10:53:04;;;;;;;18.02;9.32;;;;;;;7.25;56.91;99010.00;5063467;28;20025;-68
2022/03/02 10:55:33;;;;;;;25.17;10.70;;;;;;;7.32;56.24;99001.25;5063456;28;20044;-68
2022/03/02 10:58:02;;;;;;;21.95;10.05;;;;;;;7.52;55.54;99004.72;5063429;28;20084;-68
2022/03/02 11:00:28;;;;;;;21.95;9.57;;;;;;;7.70;53.76;99009.06;5063192;28;20037;-68
2022/03/02 11:02:59;;;;;;;19.80;10.20;;;;;;;7.85;53.54;99015.13;5063380;28;20063;-68
2022/03/02 11:05:30;;;;;;;21.75;9.88;;;;;;;8.09;53.07;99009.81;5063352;28;20028;-68
2022/03/02 11:07:56;;;;;;;17.80;9.70;;;;;;;8.49;53.83;98994.81;5063323;28;20091;-68
2022/03/02 11:10:31;;;;;;;21.08;9.40;;;;;;;8.75;53.05;98999.03;5063305;28;20028;-68
2022/03/02 11:12:58;;;;;;;18.83;9.65;;;;;;;8.93;51.68;98990.16;5063345;28;20044;-68
2022/03/02 11:15:24;;;;;;;18.98;9.52;;;;;;;9.00;49.52;98988.34;5063285;28;20021;-68
2022/03/02 11:17:53;;;;;;;17.98;9.27;;;;;;;9.24;48.86;98994.25;5063244;28;20028;-68
2022/03/02 11:20:19;;;;;;;19.02;9.07;;;;;;;9.36;48.74;98988.91;5063256;28;20021;-68
2022/03/02 11:22:55;;;;;;;16.48;8.57;;;;;;;9.22;49.55;98989.91;5064054;28;20343;-68
2022/03/02 11:25:44;;;;;;;19.35;9.07;;;;;;;9.29;49.32;98983.72;5067032;28;20021;-68